Davidson, Canada
Current Conditions -  °F | °C
As of 3:35 PM on Friday 28 Nov 2014 (Local Time) from CYXE Reporting Station
Light Snow Light Snow  
Wind Chill: -15°   Ceiling: 1200
Heat Index:   Visibility: 1mi
Dew Point:   Wind: 18mph
Humidity: 78%   Direction: 90°E
Pressure: 29.63"   Gusts: NA
Location:  51.27°N, 105.97°W
Report Text: CYXE 282135Z 09016KT 1SM R09/P6000FT/N -SN DRSN OVC012 M15/M18 A2963 RMK SN6SC2 SLP078
Loading
Personal Weather Stations






























Interactive Weather Map New forecast layout! Learn more

10-Day Weather Forecast

Advertisements
Track Severe Weather on mobile